Kilbourne, Louisiana
Current Conditions -  °F | °C
As of 5:15 AM on Friday 28 Nov 2014 (Local Time) from KBQP Reporting Station
Haze Haze  
Wind Chill: 29°   Ceiling: Unl
Heat Index: 29°   Visibility: 5mi
Dew Point: 29°   Wind: 0mph
Humidity: 97%   Direction: NA
Pressure: 30.42"   Gusts: NA
Location:  33°N, 91.32°W
Report Text: KBQP 281115Z AUTO 00000KT 5SM BR CLR M01/M02 A3042 RMK AO2 T10151019
Loading
Personal Weather Stations






























Interactive Weather Map New forecast layout! Learn more

10-Day Weather Forecast

Advertisements
Track Severe Weather on mobile